sensor_id;sensor_type;location;lat;lon;timestamp;P1;durP1;ratioP1;P2;durP2;ratioP2
38653;SDS011;24413;52.450;20.706;2024-01-16T00:00:15;4.22;;;1.40;;
38653;SDS011;24413;52.450;20.706;2024-01-16T00:02:40;9.02;;;1.55;;
38653;SDS011;24413;52.450;20.706;2024-01-16T00:05:05;3.92;;;2.15;;
38653;SDS011;24413;52.450;20.706;2024-01-16T00:07:31;6.82;;;2.45;;
38653;SDS011;24413;52.450;20.706;2024-01-16T00:09:57;7.20;;;2.03;;
38653;SDS011;24413;52.450;20.706;2024-01-16T00:12:23;7.13;;;2.03;;
38653;SDS011;24413;52.450;20.706;2024-01-16T00:14:48;3.70;;;1.90;;
38653;SDS011;24413;52.450;20.706;2024-01-16T00:17:13;4.63;;;2.00;;
38653;SDS011;24413;52.450;20.706;2024-01-16T00:19:39;2.92;;;1.58;;
38653;SDS011;24413;52.450;20.706;2024-01-16T00:22:04;2.83;;;1.40;;
38653;SDS011;24413;52.450;20.706;2024-01-16T00:24:30;3.78;;;1.75;;
38653;SDS011;24413;52.450;20.706;2024-01-16T00:26:55;4.00;;;1.92;;
38653;SDS011;24413;52.450;20.706;2024-01-16T00:29:21;3.38;;;1.52;;
38653;SDS011;24413;52.450;20.706;2024-01-16T00:31:46;2.70;;;1.70;;
38653;SDS011;24413;52.450;20.706;2024-01-16T00:34:11;3.92;;;1.42;;
38653;SDS011;24413;52.450;20.706;2024-01-16T00:36:36;3.95;;;1.50;;
38653;SDS011;24413;52.450;20.706;2024-01-16T00:39:02;3.17;;;1.50;;
38653;SDS011;24413;52.450;20.706;2024-01-16T00:41:28;4.57;;;2.25;;
38653;SDS011;24413;52.450;20.706;2024-01-16T00:43:53;3.60;;;1.63;;
38653;SDS011;24413;52.450;20.706;2024-01-16T00:46:18;7.57;;;2.10;;
38653;SDS011;24413;52.450;20.706;2024-01-16T00:48:44;7.18;;;2.72;;
38653;SDS011;24413;52.450;20.706;2024-01-16T00:51:09;2.75;;;1.60;;
38653;SDS011;24413;52.450;20.706;2024-01-16T00:53:39;2.08;;;1.30;;
38653;SDS011;24413;52.450;20.706;2024-01-16T00:56:04;2.70;;;1.02;;
38653;SDS011;24413;52.450;20.706;2024-01-16T00:58:30;3.45;;;1.50;;
38653;SDS011;24413;52.450;20.706;2024-01-16T01:00:55;2.58;;;1.10;;
38653;SDS011;24413;52.450;20.706;2024-01-16T01:03:20;3.38;;;1.30;;
38653;SDS011;24413;52.450;20.706;2024-01-16T01:05:46;1.58;;;1.20;;
38653;SDS011;24413;52.450;20.706;2024-01-16T01:08:11;3.22;;;1.58;;
38653;SDS011;24413;52.450;20.706;2024-01-16T01:10:36;1.83;;;1.25;;
38653;SDS011;24413;52.450;20.706;2024-01-16T01:13:01;1.73;;;1.23;;
38653;SDS011;24413;52.450;20.706;2024-01-16T01:15:27;4.65;;;1.45;;
38653;SDS011;24413;52.450;20.706;2024-01-16T01:17:52;1.70;;;1.40;;
38653;SDS011;24413;52.450;20.706;2024-01-16T01:20:18;2.85;;;1.33;;
38653;SDS011;24413;52.450;20.706;2024-01-16T01:22:44;5.13;;;1.75;;
38653;SDS011;24413;52.450;20.706;2024-01-16T01:25:09;1.95;;;1.38;;
38653;SDS011;24413;52.450;20.706;2024-01-16T01:27:35;4.53;;;2.35;;
38653;SDS011;24413;52.450;20.706;2024-01-16T01:30:01;3.08;;;1.85;;
38653;SDS011;24413;52.450;20.706;2024-01-16T01:32:26;5.97;;;1.92;;
38653;SDS011;24413;52.450;20.706;2024-01-16T01:34:52;1.95;;;1.70;;
38653;SDS011;24413;52.450;20.706;2024-01-16T01:37:17;2.85;;;2.13;;
38653;SDS011;24413;52.450;20.706;2024-01-16T01:39:42;4.22;;;2.60;;
38653;SDS011;24413;52.450;20.706;2024-01-16T01:42:07;10.40;;;4.70;;
38653;SDS011;24413;52.450;20.706;2024-01-16T01:44:33;5.20;;;3.38;;
38653;SDS011;24413;52.450;20.706;2024-01-16T01:46:58;4.00;;;2.25;;
38653;SDS011;24413;52.450;20.706;2024-01-16T01:49:23;2.72;;;2.28;;
38653;SDS011;24413;52.450;20.706;2024-01-16T01:51:49;3.78;;;2.10;;
38653;SDS011;24413;52.450;20.706;2024-01-16T01:54:15;3.80;;;2.42;;
38653;SDS011;24413;52.450;20.706;2024-01-16T01:56:44;3.22;;;2.35;;
38653;SDS011;24413;52.450;20.706;2024-01-16T01:59:10;2.88;;;1.90;;
38653;SDS011;24413;52.450;20.706;2024-01-16T02:01:36;2.35;;;1.83;;
38653;SDS011;24413;52.450;20.706;2024-01-16T02:04:01;6.45;;;2.40;;
38653;SDS011;24413;52.450;20.706;2024-01-16T02:06:26;6.85;;;1.70;;
38653;SDS011;24413;52.450;20.706;2024-01-16T02:08:52;1.58;;;1.13;;
38653;SDS011;24413;52.450;20.706;2024-01-16T02:11:18;2.65;;;1.50;;
38653;SDS011;24413;52.450;20.706;2024-01-16T02:13:43;2.58;;;1.20;;
38653;SDS011;24413;52.450;20.706;2024-01-16T02:16:21;3.92;;;1.42;;
38653;SDS011;24413;52.450;20.706;2024-01-16T02:18:46;1.52;;;0.93;;
38653;SDS011;24413;52.450;20.706;2024-01-16T02:21:12;3.67;;;1.52;;
38653;SDS011;24413;52.450;20.706;2024-01-16T02:23:37;3.15;;;1.17;;
38653;SDS011;24413;52.450;20.706;2024-01-16T02:26:03;4.95;;;1.42;;
38653;SDS011;24413;52.450;20.706;2024-01-16T02:28:29;2.97;;;1.20;;
38653;SDS011;24413;52.450;20.706;2024-01-16T02:30:54;5.40;;;1.17;;
38653;SDS011;24413;52.450;20.706;2024-01-16T02:33:19;2.35;;;1.20;;
38653;SDS011;24413;52.450;20.706;2024-01-16T02:35:44;2.03;;;1.45;;
38653;SDS011;24413;52.450;20.706;2024-01-16T02:38:10;3.08;;;1.20;;
38653;SDS011;24413;52.450;20.706;2024-01-16T02:40:35;2.78;;;1.42;;
38653;SDS011;24413;52.450;20.706;2024-01-16T02:43:00;4.22;;;1.88;;
38653;SDS011;24413;52.450;20.706;2024-01-16T02:45:25;3.63;;;1.13;;
38653;SDS011;24413;52.450;20.706;2024-01-16T02:47:51;1.75;;;1.10;;
38653;SDS011;24413;52.450;20.706;2024-01-16T02:50:16;3.75;;;1.45;;
38653;SDS011;24413;52.450;20.706;2024-01-16T02:52:41;5.03;;;1.58;;
38653;SDS011;24413;52.450;20.706;2024-01-16T02:55:07;4.85;;;1.10;;
38653;SDS011;24413;52.450;20.706;2024-01-16T02:57:32;1.27;;;1.00;;
38653;SDS011;24413;52.450;20.706;2024-01-16T02:59:57;5.43;;;1.33;;
38653;SDS011;24413;52.450;20.706;2024-01-16T03:02:23;2.88;;;1.48;;
38653;SDS011;24413;52.450;20.706;2024-01-16T03:04:48;3.35;;;1.10;;
38653;SDS011;24413;52.450;20.706;2024-01-16T03:07:13;2.63;;;1.08;;
38653;SDS011;24413;52.450;20.706;2024-01-16T03:09:39;2.15;;;1.33;;
38653;SDS011;24413;52.450;20.706;2024-01-16T03:12:04;1.65;;;1.02;;
38653;SDS011;24413;52.450;20.706;2024-01-16T03:14:29;2.03;;;1.15;;
38653;SDS011;24413;52.450;20.706;2024-01-16T03:16:59;1.55;;;1.10;;
38653;SDS011;24413;52.450;20.706;2024-01-16T03:19:25;4.20;;;1.02;;
38653;SDS011;24413;52.450;20.706;2024-01-16T03:21:50;1.73;;;1.13;;
38653;SDS011;24413;52.450;20.706;2024-01-16T03:24:15;1.42;;;1.02;;
38653;SDS011;24413;52.450;20.706;2024-01-16T03:26:41;1.52;;;1.00;;
38653;SDS011;24413;52.450;20.706;2024-01-16T03:29:07;5.50;;;1.10;;
38653;SDS011;24413;52.450;20.706;2024-01-16T03:31:32;2.85;;;1.33;;
38653;SDS011;24413;52.450;20.706;2024-01-16T03:33:58;2.63;;;0.90;;
38653;SDS011;24413;52.450;20.706;2024-01-16T03:36:23;3.60;;;1.33;;
38653;SDS011;24413;52.450;20.706;2024-01-16T03:38:48;1.45;;;0.85;;
38653;SDS011;24413;52.450;20.706;2024-01-16T03:41:13;5.80;;;1.60;;
38653;SDS011;24413;52.450;20.706;2024-01-16T03:43:39;7.30;;;1.30;;
38653;SDS011;24413;52.450;20.706;2024-01-16T03:46:04;5.03;;;1.27;;
38653;SDS011;24413;52.450;20.706;2024-01-16T03:48:30;2.95;;;1.17;;
38653;SDS011;24413;52.450;20.706;2024-01-16T03:50:55;2.63;;;0.93;;
38653;SDS011;24413;52.450;20.706;2024-01-16T03:53:21;2.53;;;1.00;;
38653;SDS011;24413;52.450;20.706;2024-01-16T03:55:46;2.80;;;0.88;;
38653;SDS011;24413;52.450;20.706;2024-01-16T03:58:12;1.75;;;1.20;;
38653;SDS011;24413;52.450;20.706;2024-01-16T04:00:37;1.90;;;0.90;;
38653;SDS011;24413;52.450;20.706;2024-01-16T04:03:02;4.30;;;1.17;;
38653;SDS011;24413;52.450;20.706;2024-01-16T04:05:28;3.80;;;1.80;;
38653;SDS011;24413;52.450;20.706;2024-01-16T04:07:53;6.65;;;2.00;;
38653;SDS011;24413;52.450;20.706;2024-01-16T04:10:18;7.80;;;3.28;;
38653;SDS011;24413;52.450;20.706;2024-01-16T04:12:44;2.88;;;1.33;;
38653;SDS011;24413;52.450;20.706;2024-01-16T04:15:09;7.32;;;2.45;;
38653;SDS011;24413;52.450;20.706;2024-01-16T04:17:34;7.40;;;1.67;;
38653;SDS011;24413;52.450;20.706;2024-01-16T04:20:00;4.90;;;2.38;;
38653;SDS011;24413;52.450;20.706;2024-01-16T04:22:25;2.35;;;1.50;;
38653;SDS011;24413;52.450;20.706;2024-01-16T04:24:50;7.65;;;2.53;;
38653;SDS011;24413;52.450;20.706;2024-01-16T04:27:15;4.95;;;1.25;;
38653;SDS011;24413;52.450;20.706;2024-01-16T04:29:40;5.03;;;1.67;;
38653;SDS011;24413;52.450;20.706;2024-01-16T04:32:06;4.20;;;1.60;;
38653;SDS011;24413;52.450;20.706;2024-01-16T04:34:31;3.45;;;1.67;;
38653;SDS011;24413;52.450;20.706;2024-01-16T04:36:56;4.63;;;1.60;;
38653;SDS011;24413;52.450;20.706;2024-01-16T04:39:21;4.32;;;1.63;;
38653;SDS011;24413;52.450;20.706;2024-01-16T04:41:50;5.95;;;1.75;;
38653;SDS011;24413;52.450;20.706;2024-01-16T04:44:15;5.65;;;1.25;;
38653;SDS011;24413;52.450;20.706;2024-01-16T04:46:40;3.00;;;1.40;;
38653;SDS011;24413;52.450;20.706;2024-01-16T04:49:06;6.07;;;1.50;;
38653;SDS011;24413;52.450;20.706;2024-01-16T04:51:31;6.05;;;2.05;;
38653;SDS011;24413;52.450;20.706;2024-01-16T04:53:56;5.95;;;2.42;;
38653;SDS011;24413;52.450;20.706;2024-01-16T04:56:21;5.75;;;2.70;;
38653;SDS011;24413;52.450;20.706;2024-01-16T04:58:47;4.65;;;2.72;;
38653;SDS011;24413;52.450;20.706;2024-01-16T05:01:12;12.73;;;3.58;;
38653;SDS011;24413;52.450;20.706;2024-01-16T05:03:38;5.80;;;2.85;;
38653;SDS011;24413;52.450;20.706;2024-01-16T05:06:03;7.13;;;2.33;;
38653;SDS011;24413;52.450;20.706;2024-01-16T05:08:28;17.45;;;6.38;;
38653;SDS011;24413;52.450;20.706;2024-01-16T05:10:55;12.40;;;6.00;;
38653;SDS011;24413;52.450;20.706;2024-01-16T05:13:20;13.88;;;4.22;;
38653;SDS011;24413;52.450;20.706;2024-01-16T05:15:45;9.85;;;2.75;;
38653;SDS011;24413;52.450;20.706;2024-01-16T05:18:11;3.53;;;1.77;;
38653;SDS011;24413;52.450;20.706;2024-01-16T05:20:36;2.13;;;1.40;;
38653;SDS011;24413;52.450;20.706;2024-01-16T05:23:01;3.85;;;1.70;;
38653;SDS011;24413;52.450;20.706;2024-01-16T05:25:27;3.33;;;1.60;;
38653;SDS011;24413;52.450;20.706;2024-01-16T05:27:52;6.25;;;1.95;;
38653;SDS011;24413;52.450;20.706;2024-01-16T05:30:17;9.57;;;1.70;;
38653;SDS011;24413;52.450;20.706;2024-01-16T05:32:42;2.45;;;1.95;;
38653;SDS011;24413;52.450;20.706;2024-01-16T05:35:08;3.08;;;1.83;;
38653;SDS011;24413;52.450;20.706;2024-01-16T05:37:34;8.15;;;2.13;;
38653;SDS011;24413;52.450;20.706;2024-01-16T05:40:00;11.23;;;2.85;;
38653;SDS011;24413;52.450;20.706;2024-01-16T05:42:25;9.70;;;3.40;;
38653;SDS011;24413;52.450;20.706;2024-01-16T05:44:50;13.75;;;4.32;;
38653;SDS011;24413;52.450;20.706;2024-01-16T05:47:18;22.50;;;4.90;;
38653;SDS011;24413;52.450;20.706;2024-01-16T05:49:43;20.48;;;4.60;;
38653;SDS011;24413;52.450;20.706;2024-01-16T05:52:09;9.32;;;2.65;;
38653;SDS011;24413;52.450;20.706;2024-01-16T05:54:34;10.30;;;2.72;;
38653;SDS011;24413;52.450;20.706;2024-01-16T05:56:59;10.18;;;2.22;;
38653;SDS011;24413;52.450;20.706;2024-01-16T05:59:24;8.38;;;2.30;;
38653;SDS011;24413;52.450;20.706;2024-01-16T06:01:50;8.63;;;2.38;;
38653;SDS011;24413;52.450;20.706;2024-01-16T06:04:15;9.38;;;2.25;;
38653;SDS011;24413;52.450;20.706;2024-01-16T06:06:41;8.82;;;4.10;;
38653;SDS011;24413;52.450;20.706;2024-01-16T06:09:10;31.50;;;14.50;;
38653;SDS011;24413;52.450;20.706;2024-01-16T06:11:38;18.05;;;7.22;;
38653;SDS011;24413;52.450;20.706;2024-01-16T06:14:05;11.43;;;4.07;;
38653;SDS011;24413;52.450;20.706;2024-01-16T06:16:31;8.77;;;3.33;;
38653;SDS011;24413;52.450;20.706;2024-01-16T06:18:56;9.90;;;2.72;;
38653;SDS011;24413;52.450;20.706;2024-01-16T06:21:22;6.50;;;2.58;;
38653;SDS011;24413;52.450;20.706;2024-01-16T06:23:47;14.05;;;3.85;;
38653;SDS011;24413;52.450;20.706;2024-01-16T06:26:12;7.72;;;2.70;;
38653;SDS011;24413;52.450;20.706;2024-01-16T06:28:38;15.50;;;3.63;;
38653;SDS011;24413;52.450;20.706;2024-01-16T06:31:03;40.13;;;13.27;;
38653;SDS011;24413;52.450;20.706;2024-01-16T06:33:29;33.75;;;9.45;;
38653;SDS011;24413;52.450;20.706;2024-01-16T06:35:56;32.42;;;6.22;;
38653;SDS011;24413;52.450;20.706;2024-01-16T06:38:22;34.97;;;6.40;;
38653;SDS011;24413;52.450;20.706;2024-01-16T06:40:47;19.45;;;3.92;;
38653;SDS011;24413;52.450;20.706;2024-01-16T06:43:12;11.35;;;3.22;;
38653;SDS011;24413;52.450;20.706;2024-01-16T06:45:40;32.78;;;11.32;;
38653;SDS011;24413;52.450;20.706;2024-01-16T06:48:05;52.13;;;11.80;;
38653;SDS011;24413;52.450;20.706;2024-01-16T06:50:31;14.05;;;3.65;;
38653;SDS011;24413;52.450;20.706;2024-01-16T06:52:56;16.73;;;3.90;;
38653;SDS011;24413;52.450;20.706;2024-01-16T06:55:21;11.77;;;3.45;;
38653;SDS011;24413;52.450;20.706;2024-01-16T06:57:46;60.03;;;21.25;;
38653;SDS011;24413;52.450;20.706;2024-01-16T07:00:12;100.38;;;37.88;;
38653;SDS011;24413;52.450;20.706;2024-01-16T07:02:39;72.45;;;15.52;;
38653;SDS011;24413;52.450;20.706;2024-01-16T07:05:04;31.13;;;6.72;;
38653;SDS011;24413;52.450;20.706;2024-01-16T07:07:30;37.55;;;6.50;;
38653;SDS011;24413;52.450;20.706;2024-01-16T07:09:55;21.90;;;5.10;;
38653;SDS011;24413;52.450;20.706;2024-01-16T07:12:20;21.02;;;5.40;;
38653;SDS011;24413;52.450;20.706;2024-01-16T07:14:46;17.63;;;5.45;;
38653;SDS011;24413;52.450;20.706;2024-01-16T07:17:12;20.67;;;5.97;;
38653;SDS011;24413;52.450;20.706;2024-01-16T07:19:37;22.55;;;5.50;;
38653;SDS011;24413;52.450;20.706;2024-01-16T07:22:02;93.65;;;33.28;;
38653;SDS011;24413;52.450;20.706;2024-01-16T07:24:28;83.25;;;22.13;;
38653;SDS011;24413;52.450;20.706;2024-01-16T07:26:53;44.10;;;7.72;;
38653;SDS011;24413;52.450;20.706;2024-01-16T07:29:19;30.42;;;4.88;;
38653;SDS011;24413;52.450;20.706;2024-01-16T07:31:45;18.27;;;4.30;;
38653;SDS011;24413;52.450;20.706;2024-01-16T07:34:10;17.77;;;3.83;;
38653;SDS011;24413;52.450;20.706;2024-01-16T07:36:35;18.00;;;4.00;;
38653;SDS011;24413;52.450;20.706;2024-01-16T07:39:00;9.38;;;2.97;;
38653;SDS011;24413;52.450;20.706;2024-01-16T07:41:26;12.60;;;3.33;;
38653;SDS011;24413;52.450;20.706;2024-01-16T07:43:51;12.80;;;3.45;;
38653;SDS011;24413;52.450;20.706;2024-01-16T07:46:16;45.60;;;18.73;;
38653;SDS011;24413;52.450;20.706;2024-01-16T07:48:42;30.67;;;8.93;;
38653;SDS011;24413;52.450;20.706;2024-01-16T07:51:07;24.80;;;5.03;;
38653;SDS011;24413;52.450;20.706;2024-01-16T07:53:32;20.23;;;4.60;;
38653;SDS011;24413;52.450;20.706;2024-01-16T07:55:57;10.55;;;3.50;;
38653;SDS011;24413;52.450;20.706;2024-01-16T07:58:23;14.88;;;4.30;;
38653;SDS011;24413;52.450;20.706;2024-01-16T08:00:48;17.15;;;3.58;;
38653;SDS011;24413;52.450;20.706;2024-01-16T08:03:14;13.32;;;4.78;;
38653;SDS011;24413;52.450;20.706;2024-01-16T08:05:39;8.20;;;3.00;;
38653;SDS011;24413;52.450;20.706;2024-01-16T08:08:04;13.68;;;3.67;;
38653;SDS011;24413;52.450;20.706;2024-01-16T08:10:30;15.38;;;4.80;;
38653;SDS011;24413;52.450;20.706;2024-01-16T08:12:56;19.20;;;8.27;;
38653;SDS011;24413;52.450;20.706;2024-01-16T08:15:21;21.38;;;6.47;;
38653;SDS011;24413;52.450;20.706;2024-01-16T08:17:46;16.08;;;6.03;;
38653;SDS011;24413;52.450;20.706;2024-01-16T08:20:12;8.40;;;4.18;;
38653;SDS011;24413;52.450;20.706;2024-01-16T08:22:37;12.63;;;4.40;;
38653;SDS011;24413;52.450;20.706;2024-01-16T08:25:03;10.23;;;3.15;;
38653;SDS011;24413;52.450;20.706;2024-01-16T08:27:30;13.50;;;3.42;;
38653;SDS011;24413;52.450;20.706;2024-01-16T08:29:55;10.18;;;3.75;;
38653;SDS011;24413;52.450;20.706;2024-01-16T08:32:21;7.50;;;2.10;;
38653;SDS011;24413;52.450;20.706;2024-01-16T08:34:46;8.70;;;2.38;;
38653;SDS011;24413;52.450;20.706;2024-01-16T08:37:11;6.40;;;2.15;;
38653;SDS011;24413;52.450;20.706;2024-01-16T08:39:37;12.80;;;4.15;;
38653;SDS011;24413;52.450;20.706;2024-01-16T08:42:02;7.20;;;3.10;;
38653;SDS011;24413;52.450;20.706;2024-01-16T08:44:28;6.55;;;2.38;;
38653;SDS011;24413;52.450;20.706;2024-01-16T08:46:53;7.45;;;3.00;;
38653;SDS011;24413;52.450;20.706;2024-01-16T08:49:19;8.73;;;3.03;;
38653;SDS011;24413;52.450;20.706;2024-01-16T08:51:45;4.75;;;2.83;;
38653;SDS011;24413;52.450;20.706;2024-01-16T08:54:10;6.35;;;2.67;;
38653;SDS011;24413;52.450;20.706;2024-01-16T08:56:35;4.38;;;2.45;;
38653;SDS011;24413;52.450;20.706;2024-01-16T08:59:00;12.50;;;2.17;;
38653;SDS011;24413;52.450;20.706;2024-01-16T09:01:26;5.13;;;2.30;;
38653;SDS011;24413;52.450;20.706;2024-01-16T09:03:51;7.25;;;1.95;;
38653;SDS011;24413;52.450;20.706;2024-01-16T09:06:16;4.15;;;1.83;;
38653;SDS011;24413;52.450;20.706;2024-01-16T09:08:42;5.55;;;2.00;;
38653;SDS011;24413;52.450;20.706;2024-01-16T09:11:09;6.20;;;2.28;;
38653;SDS011;24413;52.450;20.706;2024-01-16T09:13:34;4.70;;;2.17;;
38653;SDS011;24413;52.450;20.706;2024-01-16T09:16:00;4.45;;;1.80;;
38653;SDS011;24413;52.450;20.706;2024-01-16T09:18:25;4.75;;;1.75;;
38653;SDS011;24413;52.450;20.706;2024-01-16T09:20:50;3.15;;;1.20;;
38653;SDS011;24413;52.450;20.706;2024-01-16T09:23:15;3.95;;;1.88;;
38653;SDS011;24413;52.450;20.706;2024-01-16T09:25:40;5.13;;;1.60;;
38653;SDS011;24413;52.450;20.706;2024-01-16T09:28:06;3.72;;;1.75;;
38653;SDS011;24413;52.450;20.706;2024-01-16T09:30:31;12.10;;;2.50;;
38653;SDS011;24413;52.450;20.706;2024-01-16T09:32:58;3.15;;;1.63;;
38653;SDS011;24413;52.450;20.706;2024-01-16T09:35:23;6.30;;;2.45;;
38653;SDS011;24413;52.450;20.706;2024-01-16T09:37:49;10.65;;;2.47;;
38653;SDS011;24413;52.450;20.706;2024-01-16T09:40:14;9.18;;;1.98;;
38653;SDS011;24413;52.450;20.706;2024-01-16T09:42:39;6.03;;;1.70;;
38653;SDS011;24413;52.450;20.706;2024-01-16T09:45:06;18.42;;;3.42;;
38653;SDS011;24413;52.450;20.706;2024-01-16T09:47:32;4.18;;;2.00;;
38653;SDS011;24413;52.450;20.706;2024-01-16T09:49:59;4.00;;;1.38;;
38653;SDS011;24413;52.450;20.706;2024-01-16T09:52:25;8.73;;;1.95;;
38653;SDS011;24413;52.450;20.706;2024-01-16T09:54:50;4.65;;;2.22;;
38653;SDS011;24413;52.450;20.706;2024-01-16T09:57:16;6.93;;;2.80;;
38653;SDS011;24413;52.450;20.706;2024-01-16T09:59:43;4.38;;;1.80;;
38653;SDS011;24413;52.450;20.706;2024-01-16T10:02:09;6.35;;;1.90;;
38653;SDS011;24413;52.450;20.706;2024-01-16T10:04:35;3.47;;;1.73;;
38653;SDS011;24413;52.450;20.706;2024-01-16T10:07:01;4.10;;;1.95;;
38653;SDS011;24413;52.450;20.706;2024-01-16T10:09:26;7.63;;;2.20;;
38653;SDS011;24413;52.450;20.706;2024-01-16T10:11:51;4.50;;;1.80;;
38653;SDS011;24413;52.450;20.706;2024-01-16T10:14:17;8.55;;;2.47;;
38653;SDS011;24413;52.450;20.706;2024-01-16T10:16:56;4.13;;;2.28;;
38653;SDS011;24413;52.450;20.706;2024-01-16T10:19:22;7.50;;;2.72;;
38653;SDS011;24413;52.450;20.706;2024-01-16T10:21:48;7.65;;;3.03;;
38653;SDS011;24413;52.450;20.706;2024-01-16T10:24:14;6.95;;;2.70;;
38653;SDS011;24413;52.450;20.706;2024-01-16T10:26:39;6.45;;;2.30;;
38653;SDS011;24413;52.450;20.706;2024-01-16T10:29:04;9.57;;;2.10;;
38653;SDS011;24413;52.450;20.706;2024-01-16T10:31:30;5.53;;;2.65;;
38653;SDS011;24413;52.450;20.706;2024-01-16T10:33:56;4.80;;;2.00;;
38653;SDS011;24413;52.450;20.706;2024-01-16T10:36:23;3.33;;;1.90;;
38653;SDS011;24413;52.450;20.706;2024-01-16T10:38:48;8.63;;;2.67;;
38653;SDS011;24413;52.450;20.706;2024-01-16T10:41:17;4.07;;;2.17;;
38653;SDS011;24413;52.450;20.706;2024-01-16T10:43:42;14.68;;;2.75;;
38653;SDS011;24413;52.450;20.706;2024-01-16T10:46:16;5.15;;;1.77;;
38653;SDS011;24413;52.450;20.706;2024-01-16T10:48:45;7.35;;;2.22;;
38653;SDS011;24413;52.450;20.706;2024-01-16T10:51:23;6.75;;;1.85;;
38653;SDS011;24413;52.450;20.706;2024-01-16T10:53:48;10.27;;;5.88;;
38653;SDS011;24413;52.450;20.706;2024-01-16T10:56:13;12.93;;;5.68;;
38653;SDS011;24413;52.450;20.706;2024-01-16T10:58:40;3.95;;;2.55;;
38653;SDS011;24413;52.450;20.706;2024-01-16T11:01:06;6.30;;;2.90;;
38653;SDS011;24413;52.450;20.706;2024-01-16T11:03:35;57.40;;;26.15;;
38653;SDS011;24413;52.450;20.706;2024-01-16T11:06:04;19.17;;;10.40;;
38653;SDS011;24413;52.450;20.706;2024-01-16T11:08:31;4.57;;;2.65;;
38653;SDS011;24413;52.450;20.706;2024-01-16T11:10:59;6.38;;;2.67;;
38653;SDS011;24413;52.450;20.706;2024-01-16T11:13:24;12.25;;;6.28;;
38653;SDS011;24413;52.450;20.706;2024-01-16T11:15:50;5.50;;;3.35;;
38653;SDS011;24413;52.450;20.706;2024-01-16T11:18:15;8.02;;;3.88;;
38653;SDS011;24413;52.450;20.706;2024-01-16T11:20:41;8.50;;;4.40;;
38653;SDS011;24413;52.450;20.706;2024-01-16T11:23:08;4.93;;;2.30;;
38653;SDS011;24413;52.450;20.706;2024-01-16T11:25:33;7.80;;;2.25;;
38653;SDS011;24413;52.450;20.706;2024-01-16T11:28:12;2.95;;;1.90;;
38653;SDS011;24413;52.450;20.706;2024-01-16T11:30:38;5.47;;;1.80;;
38653;SDS011;24413;52.450;20.706;2024-01-16T11:33:04;6.70;;;3.28;;
38653;SDS011;24413;52.450;20.706;2024-01-16T11:35:33;6.30;;;2.03;;
38653;SDS011;24413;52.450;20.706;2024-01-16T11:38:08;204.25;;;81.22;;
38653;SDS011;24413;52.450;20.706;2024-01-16T11:40:34;170.05;;;60.75;;
38653;SDS011;24413;52.450;20.706;2024-01-16T11:43:35;37.63;;;22.05;;
38653;SDS011;24413;52.450;20.706;2024-01-16T11:48:14;32.65;;;12.48;;
38653;SDS011;24413;52.450;20.706;2024-01-16T11:50:40;44.90;;;23.23;;
38653;SDS011;24413;52.450;20.706;2024-01-16T11:53:05;15.38;;;10.48;;
38653;SDS011;24413;52.450;20.706;2024-01-16T11:55:31;38.95;;;20.80;;
38653;SDS011;24413;52.450;20.706;2024-01-16T12:00:41;97.53;;;41.30;;
38653;SDS011;24413;52.450;20.706;2024-01-16T12:03:07;28.30;;;12.07;;
38653;SDS011;24413;52.450;20.706;2024-01-16T12:05:33;85.72;;;38.22;;
38653;SDS011;24413;52.450;20.706;2024-01-16T12:07:58;213.05;;;100.95;;
38653;SDS011;24413;52.450;20.706;2024-01-16T12:10:23;49.70;;;27.10;;
38653;SDS011;24413;52.450;20.706;2024-01-16T12:12:49;19.08;;;7.90;;
38653;SDS011;24413;52.450;20.706;2024-01-16T12:15:18;11.70;;;6.93;;
38653;SDS011;24413;52.450;20.706;2024-01-16T12:20:19;11.90;;;7.10;;
38653;SDS011;24413;52.450;20.706;2024-01-16T12:22:44;10.45;;;5.63;;
38653;SDS011;24413;52.450;20.706;2024-01-16T12:25:09;8.85;;;4.18;;
38653;SDS011;24413;52.450;20.706;2024-01-16T12:27:35;9.30;;;4.00;;
38653;SDS011;24413;52.450;20.706;2024-01-16T12:30:05;28.58;;;13.07;;
38653;SDS011;24413;52.450;20.706;2024-01-16T12:32:32;10.40;;;6.15;;
38653;SDS011;24413;52.450;20.706;2024-01-16T12:34:57;22.65;;;11.98;;
38653;SDS011;24413;52.450;20.706;2024-01-16T12:37:22;22.38;;;11.77;;
38653;SDS011;24413;52.450;20.706;2024-01-16T12:39:48;28.38;;;13.90;;
38653;SDS011;24413;52.450;20.706;2024-01-16T12:42:14;31.02;;;16.05;;
38653;SDS011;24413;52.450;20.706;2024-01-16T12:44:39;33.45;;;14.77;;
38653;SDS011;24413;52.450;20.706;2024-01-16T12:47:05;72.75;;;31.42;;
38653;SDS011;24413;52.450;20.706;2024-01-16T12:49:31;48.55;;;19.70;;
38653;SDS011;24413;52.450;20.706;2024-01-16T12:54:40;15.15;;;8.32;;
38653;SDS011;24413;52.450;20.706;2024-01-16T12:57:05;24.80;;;16.40;;
38653;SDS011;24413;52.450;20.706;2024-01-16T12:59:31;13.88;;;7.40;;
38653;SDS011;24413;52.450;20.706;2024-01-16T13:01:56;41.28;;;27.42;;
38653;SDS011;24413;52.450;20.706;2024-01-16T13:04:21;19.75;;;10.88;;
38653;SDS011;24413;52.450;20.706;2024-01-16T13:06:47;46.20;;;29.17;;
38653;SDS011;24413;52.450;20.706;2024-01-16T13:09:14;12.52;;;7.70;;
38653;SDS011;24413;52.450;20.706;2024-01-16T13:11:50;38.08;;;26.05;;
38653;SDS011;24413;52.450;20.706;2024-01-16T13:14:16;21.95;;;13.27;;
38653;SDS011;24413;52.450;20.706;2024-01-16T13:16:42;26.70;;;16.38;;
38653;SDS011;24413;52.450;20.706;2024-01-16T13:19:07;14.60;;;6.85;;
38653;SDS011;24413;52.450;20.706;2024-01-16T13:21:35;11.07;;;7.05;;
38653;SDS011;24413;52.450;20.706;2024-01-16T13:24:02;20.98;;;11.63;;
38653;SDS011;24413;52.450;20.706;2024-01-16T13:26:27;36.72;;;23.92;;
38653;SDS011;24413;52.450;20.706;2024-01-16T13:28:52;18.92;;;10.90;;
38653;SDS011;24413;52.450;20.706;2024-01-16T13:31:18;49.45;;;26.25;;
38653;SDS011;24413;52.450;20.706;2024-01-16T13:33:43;268.17;;;98.97;;
38653;SDS011;24413;52.450;20.706;2024-01-16T13:36:09;159.20;;;62.78;;
38653;SDS011;24413;52.450;20.706;2024-01-16T13:38:34;499.08;;;170.27;;
38653;SDS011;24413;52.450;20.706;2024-01-16T13:40:59;135.18;;;51.50;;
38653;SDS011;24413;52.450;20.706;2024-01-16T13:43:24;136.48;;;52.05;;
38653;SDS011;24413;52.450;20.706;2024-01-16T13:45:50;161.15;;;70.63;;
38653;SDS011;24413;52.450;20.706;2024-01-16T13:48:16;50.70;;;26.35;;
38653;SDS011;24413;52.450;20.706;2024-01-16T13:50:42;39.40;;;18.63;;
38653;SDS011;24413;52.450;20.706;2024-01-16T13:53:07;94.53;;;38.65;;
38653;SDS011;24413;52.450;20.706;2024-01-16T13:55:33;93.47;;;37.00;;
38653;SDS011;24413;52.450;20.706;2024-01-16T13:57:58;29.08;;;11.65;;
38653;SDS011;24413;52.450;20.706;2024-01-16T14:00:23;15.23;;;8.00;;
38653;SDS011;24413;52.450;20.706;2024-01-16T14:02:49;20.30;;;10.85;;
38653;SDS011;24413;52.450;20.706;2024-01-16T14:05:15;14.32;;;6.20;;
38653;SDS011;24413;52.450;20.706;2024-01-16T14:07:41;13.88;;;5.78;;
38653;SDS011;24413;52.450;20.706;2024-01-16T14:10:09;22.95;;;11.00;;
38653;SDS011;24413;52.450;20.706;2024-01-16T14:12:37;16.88;;;8.65;;
38653;SDS011;24413;52.450;20.706;2024-01-16T14:15:02;25.60;;;16.23;;
38653;SDS011;24413;52.450;20.706;2024-01-16T14:17:34;18.95;;;10.95;;
38653;SDS011;24413;52.450;20.706;2024-01-16T14:20:00;28.60;;;17.90;;
38653;SDS011;24413;52.450;20.706;2024-01-16T14:22:25;32.72;;;17.08;;
38653;SDS011;24413;52.450;20.706;2024-01-16T14:24:52;33.55;;;15.57;;
38653;SDS011;24413;52.450;20.706;2024-01-16T14:27:17;34.03;;;16.73;;